createdAt,value
2022-08-07T00:01:12.467Z,15.11
2022-08-07T00:03:50.659Z,15.21
2022-08-07T00:06:17.556Z,15.31
2022-08-07T00:08:47.297Z,15.29
2022-08-07T00:11:13.974Z,15.31
2022-08-07T00:13:47.924Z,15.42
2022-08-07T00:16:17.415Z,14.91
2022-08-07T00:18:48.166Z,15.00
2022-08-07T00:21:57.084Z,14.60
2022-08-07T00:24:01.714Z,14.63
2022-08-07T00:26:59.503Z,15.52
2022-08-07T00:29:15.349Z,15.22
2022-08-07T00:31:42.718Z,15.32
2022-08-07T00:34:10.061Z,15.06
2022-08-07T00:36:42.664Z,15.44
2022-08-07T00:39:12.822Z,15.12
2022-08-07T00:41:53.832Z,14.84
2022-08-07T00:44:28.148Z,15.39
2022-08-07T00:46:55.515Z,15.08
2022-08-07T00:49:24.757Z,15.12
2022-08-07T00:52:09.829Z,14.89
2022-08-07T00:54:36.641Z,15.13
2022-08-07T00:57:07.431Z,14.97
2022-08-07T00:59:37.661Z,15.14
2022-08-07T01:02:06.244Z,14.90
2022-08-07T01:04:42.901Z,15.22
2022-08-07T01:07:10.874Z,14.71
2022-08-07T01:10:04.687Z,15.12
2022-08-07T01:12:30.208Z,15.34
2022-08-07T01:15:01.468Z,14.48
2022-08-07T01:17:34.635Z,15.02
2022-08-07T01:20:10.394Z,14.77
2022-08-07T01:22:46.824Z,15.02
2022-08-07T01:25:53.589Z,14.73
2022-08-07T01:28:14.669Z,14.90
2022-08-07T01:30:41.286Z,13.61
2022-08-07T01:33:08.773Z,14.66
2022-08-07T01:35:52.893Z,15.12
2022-08-07T01:38:24.919Z,15.29
2022-08-07T01:40:57.579Z,14.98
2022-08-07T01:43:25.954Z,14.93
2022-08-07T01:45:54.536Z,14.92
2022-08-07T01:48:30.231Z,14.82
2022-08-07T01:51:00.409Z,15.07
2022-08-07T01:54:12.031Z,14.56
2022-08-07T01:56:55.203Z,14.66
2022-08-07T01:59:24.628Z,15.53
2022-08-07T02:02:04.267Z,15.26
2022-08-07T02:04:36.033Z,15.50
2022-08-07T02:07:02.734Z,15.22
2022-08-07T02:09:33.808Z,15.23
2022-08-07T02:12:17.862Z,15.50
2022-08-07T02:14:50.515Z,15.15
2022-08-07T02:17:27.484Z,15.35
2022-08-07T02:20:07.591Z,15.13
2022-08-07T02:22:41.143Z,15.20
2022-08-07T02:25:13.964Z,15.25
2022-08-07T02:27:44.662Z,15.44
2022-08-07T02:30:19.175Z,15.51
2022-08-07T02:33:03.851Z,15.41
2022-08-07T02:36:29.540Z,15.52
2022-08-07T02:38:28.156Z,15.22
2022-08-07T02:40:58.734Z,15.17
2022-08-07T02:43:26.563Z,14.93
2022-08-07T02:45:58.511Z,15.41
2022-08-07T02:48:28.211Z,15.19
2022-08-07T02:50:55.210Z,15.17
2022-08-07T02:53:27.430Z,14.89
2022-08-07T02:56:04.371Z,14.69
2022-08-07T02:58:33.510Z,14.61
2022-08-07T03:01:00.490Z,15.03
2022-08-07T03:03:29.607Z,15.22
2022-08-07T03:06:16.589Z,15.13
2022-08-07T03:08:52.552Z,14.36
2022-08-07T03:11:19.558Z,14.28
2022-08-07T03:13:51.904Z,15.29
2022-08-07T03:16:27.811Z,14.92
2022-08-07T03:18:54.660Z,14.96
2022-08-07T03:21:22.566Z,14.97
2022-08-07T03:24:20.524Z,15.07
2022-08-07T03:26:36.050Z,14.98
2022-08-07T03:29:16.849Z,14.77
2022-08-07T03:31:46.373Z,15.26
2022-08-07T03:34:18.585Z,14.89
2022-08-07T03:36:50.301Z,14.79
2022-08-07T03:39:17.078Z,15.12
2022-08-07T03:42:04.448Z,14.89
2022-08-07T03:44:34.652Z,14.77
2022-08-07T03:47:14.196Z,15.23
2022-08-07T03:49:49.921Z,14.94
2022-08-07T03:52:26.036Z,15.06
2022-08-07T03:55:07.251Z,15.27
2022-08-07T03:59:05.520Z,14.64
2022-08-07T04:00:21.265Z,15.18
2022-08-07T04:02:58.015Z,15.06
2022-08-07T04:05:28.729Z,15.04
2022-08-07T04:08:06.590Z,14.85
2022-08-07T04:10:33.216Z,14.28
2022-08-07T04:13:05.314Z,15.26
2022-08-07T04:15:31.967Z,15.30
2022-08-07T04:18:57.463Z,14.93
2022-08-07T04:20:54.709Z,14.46
2022-08-07T04:23:21.873Z,15.26
2022-08-07T04:25:49.169Z,14.69
2022-08-07T04:28:15.899Z,15.08
2022-08-07T04:30:57.309Z,15.33
2022-08-07T04:33:25.661Z,14.99
2022-08-07T04:35:53.987Z,15.14
2022-08-07T04:38:21.250Z,15.07
2022-08-07T04:40:52.457Z,14.80
2022-08-07T04:44:12.566Z,14.78
2022-08-07T04:46:40.019Z,15.44
2022-08-07T04:50:03.900Z,15.45
2022-08-07T04:52:37.627Z,15.14
2022-08-07T04:58:10.696Z,15.42
2022-08-07T04:59:15.857Z,15.62
2022-08-07T05:01:46.795Z,15.21
2022-08-07T05:04:21.383Z,15.27
2022-08-07T05:06:59.200Z,15.78
2022-08-07T05:09:58.510Z,16.07
2022-08-07T05:12:32.085Z,16.20
2022-08-07T05:15:23.039Z,16.56
2022-08-07T05:17:55.131Z,17.29
2022-08-07T05:20:27.039Z,18.61
2022-08-07T05:22:57.135Z,19.79
2022-08-07T05:25:25.925Z,21.29
2022-08-07T05:28:20.096Z,21.78
2022-08-07T05:30:49.912Z,24.20
2022-08-07T05:33:20.835Z,25.17
2022-08-07T05:35:48.960Z,26.44
2022-08-07T05:38:59.660Z,27.22
2022-08-07T05:41:05.332Z,28.18
2022-08-07T05:44:08.493Z,28.55
2022-08-07T05:46:29.373Z,28.95
2022-08-07T05:48:58.229Z,29.49
2022-08-07T05:51:26.254Z,29.83
2022-08-07T05:54:13.263Z,29.03
2022-08-07T05:56:45.012Z,30.55
2022-08-07T05:59:15.201Z,30.10
2022-08-07T06:01:42.270Z,29.95
2022-08-07T06:04:09.066Z,30.25
2022-08-07T06:06:35.716Z,30.72
2022-08-07T06:09:04.721Z,30.36
2022-08-07T06:11:32.941Z,30.89
2022-08-07T06:14:12.047Z,30.45
2022-08-07T06:16:50.576Z,30.81
2022-08-07T06:19:58.396Z,31.35
2022-08-07T06:22:14.841Z,31.65
2022-08-07T06:24:57.010Z,31.96
2022-08-07T06:28:00.391Z,32.09
2022-08-07T06:30:32.160Z,31.75
2022-08-07T06:32:59.159Z,32.85
2022-08-07T06:35:30.645Z,32.83
2022-08-07T06:38:20.064Z,33.15
2022-08-07T06:40:50.178Z,33.63
2022-08-07T06:43:21.697Z,34.06
2022-08-07T06:45:49.094Z,33.52
2022-08-07T06:48:15.844Z,34.90
2022-08-07T06:50:51.783Z,35.32
2022-08-07T06:53:49.192Z,35.20
2022-08-07T06:56:07.445Z,35.37
2022-08-07T07:00:12.467Z,34.87
2022-08-07T07:01:33.191Z,33.54
2022-08-07T07:04:28.546Z,32.03
2022-08-07T07:07:01.001Z,30.33
2022-08-07T07:09:30.941Z,28.19
2022-08-07T07:12:16.559Z,28.60
2022-08-07T07:15:03.651Z,27.59
2022-08-07T07:17:39.064Z,26.99
2022-08-07T07:20:23.528Z,26.80
2022-08-07T07:24:06.133Z,26.99
2022-08-07T07:26:32.687Z,26.94
2022-08-07T07:28:48.339Z,26.10
2022-08-07T07:31:30.305Z,25.04
2022-08-07T07:34:08.661Z,24.79
2022-08-07T07:36:40.462Z,24.28
2022-08-07T07:39:07.381Z,23.58
2022-08-07T07:42:01.927Z,21.95
2022-08-07T07:44:25.978Z,22.91
2022-08-07T07:46:56.145Z,21.25
2022-08-07T07:50:33.221Z,22.77
2022-08-07T07:52:16.104Z,22.36
2022-08-07T07:54:44.173Z,22.00
2022-08-07T07:57:21.116Z,21.78
2022-08-07T08:00:09.331Z,21.53
2022-08-07T08:02:36.127Z,21.31
2022-08-07T08:05:04.395Z,21.27
2022-08-07T08:07:35.358Z,21.18
2022-08-07T08:10:09.122Z,21.56
2022-08-07T08:12:52.258Z,20.90
2022-08-07T08:15:27.258Z,21.47
2022-08-07T08:18:18.032Z,20.64
2022-08-07T08:20:45.398Z,21.21
2022-08-07T08:23:33.099Z,19.97
2022-08-07T08:26:21.573Z,20.67
2022-08-07T08:28:51.193Z,20.46
2022-08-07T08:31:30.407Z,20.33
2022-08-07T08:34:12.509Z,20.52
2022-08-07T08:36:57.707Z,20.46
2022-08-07T08:39:25.365Z,20.48
2022-08-07T08:42:18.351Z,20.92
2022-08-07T08:44:54.709Z,20.81
2022-08-07T08:47:54.796Z,20.92
2022-08-07T08:50:38.866Z,20.38
2022-08-07T08:53:13.565Z,21.18
2022-08-07T08:55:54.730Z,20.69
2022-08-07T08:59:06.511Z,21.43
2022-08-07T09:02:08.910Z,21.59
2022-08-07T09:04:43.777Z,21.50
2022-08-07T09:07:23.278Z,21.45
2022-08-07T09:09:56.633Z,21.45
2022-08-07T09:13:00.857Z,21.45
2022-08-07T09:16:21.840Z,21.58
2022-08-07T09:18:33.615Z,21.62
2022-08-07T09:21:57.921Z,21.39
2022-08-07T09:24:55.077Z,21.66
2022-08-07T09:27:59.753Z,21.89
2022-08-07T09:30:54.593Z,21.00
2022-08-07T09:33:53.075Z,21.75
2022-08-07T09:36:35.330Z,21.98
2022-08-07T09:39:54.506Z,22.50
2022-08-07T09:42:43.120Z,22.00
2022-08-07T09:47:52.543Z,22.64
2022-08-07T09:49:09.421Z,22.88
2022-08-07T09:52:16.113Z,22.88
2022-08-07T09:55:29.310Z,22.72
2022-08-07T09:58:32.010Z,22.34
2022-08-07T10:01:23.295Z,22.43
2022-08-07T10:04:32.652Z,22.08
2022-08-07T10:07:39.710Z,22.16
2022-08-07T10:10:22.794Z,22.14
2022-08-07T10:13:06.241Z,21.39
2022-08-07T10:15:59.969Z,22.06
2022-08-07T10:18:39.488Z,21.92
2022-08-07T10:21:50.767Z,22.03
2022-08-07T10:24:08.624Z,22.17
2022-08-07T10:26:53.044Z,22.32
2022-08-07T10:29:59.391Z,21.85
2022-08-07T10:32:52.451Z,22.34
2022-08-07T10:35:56.860Z,22.29
2022-08-07T10:38:41.143Z,22.15
2022-08-07T10:41:46.288Z,21.48
2022-08-07T10:44:45.240Z,21.98
2022-08-07T10:47:14.161Z,22.04
2022-08-07T10:49:45.284Z,22.24
2022-08-07T10:52:51.302Z,22.17
2022-08-07T10:55:36.868Z,21.75
2022-08-07T11:26:24.248Z,22.31
2022-08-07T11:28:55.170Z,22.26
2022-08-07T11:31:41.594Z,22.12
2022-08-07T11:34:24.925Z,21.76
2022-08-07T11:37:03.012Z,21.99
2022-08-07T11:39:59.912Z,20.59
2022-08-07T11:42:55.309Z,22.07
2022-08-07T11:45:53.664Z,22.12
2022-08-07T11:49:27.565Z,22.12
2022-08-07T11:51:59.276Z,22.10
2022-08-07T11:55:00.097Z,22.06
2022-08-07T11:58:00.401Z,21.99
2022-08-07T12:01:08.289Z,22.08
2022-08-07T12:03:47.147Z,22.14
2022-08-07T12:07:00.980Z,22.15
2022-08-07T12:09:47.702Z,22.13
2022-08-07T12:12:19.619Z,22.30
2022-08-07T12:15:01.325Z,21.85
2022-08-07T12:17:34.311Z,21.45
2022-08-07T12:20:30.150Z,22.55
2022-08-07T12:23:14.435Z,22.52
2022-08-07T12:26:02.978Z,22.57
2022-08-07T12:28:52.942Z,22.32
2022-08-07T12:31:53.127Z,22.14
2022-08-07T12:34:26.770Z,22.64
2022-08-07T12:36:53.719Z,21.43
2022-08-07T12:39:42.479Z,22.19
2022-08-07T12:42:08.027Z,21.86
2022-08-07T12:44:34.840Z,21.78
2022-08-07T12:47:21.864Z,21.98
2022-08-07T12:50:38.078Z,22.55
2022-08-07T12:53:28.726Z,21.91
2022-08-07T12:56:41.435Z,22.57
2022-08-07T12:59:08.973Z,22.13
2022-08-07T13:02:27.019Z,21.98
2022-08-07T13:05:14.686Z,22.32
2022-08-07T13:08:22.267Z,22.25
2022-08-07T13:11:31.534Z,22.17
2022-08-07T13:14:50.910Z,21.74
2022-08-07T13:17:39.897Z,21.93
2022-08-07T13:20:34.987Z,22.43
2022-08-07T13:26:00.633Z,21.56
2022-08-07T13:29:03.612Z,22.31
2022-08-07T13:32:32.080Z,22.13
2022-08-07T13:34:59.271Z,21.89
2022-08-07T13:37:58.514Z,21.98
2022-08-07T13:40:49.916Z,22.28
2022-08-07T13:43:21.539Z,21.91
2022-08-07T13:46:21.568Z,21.96
2022-08-07T13:48:39.677Z,22.21
2022-08-07T13:51:28.210Z,22.14
2022-08-07T13:54:02.132Z,22.35
2022-08-07T13:56:35.913Z,21.93
2022-08-07T13:59:13.896Z,22.09
2022-08-07T14:02:03.425Z,20.87
2022-08-07T14:04:35.452Z,22.21
2022-08-07T14:07:05.963Z,22.27
2022-08-07T14:10:01.533Z,22.07
2022-08-07T14:12:27.565Z,22.26
2022-08-07T14:15:00.635Z,21.60
2022-08-07T14:18:12.486Z,21.84
2022-08-07T14:20:42.906Z,21.77
2022-08-07T14:23:31.366Z,21.74
2022-08-07T14:29:06.021Z,20.60
2022-08-07T14:31:55.973Z,21.55
2022-08-07T14:34:29.191Z,21.43
2022-08-07T14:36:56.976Z,21.19
2022-08-07T14:40:16.665Z,21.43
2022-08-07T14:42:19.758Z,21.20
2022-08-07T14:44:52.715Z,21.21
2022-08-07T14:47:20.008Z,20.43
2022-08-07T14:52:38.094Z,20.50
2022-08-07T14:55:05.830Z,21.19
2022-08-07T15:00:30.461Z,21.29
2022-08-07T15:05:54.371Z,20.98
2022-08-07T15:08:34.008Z,20.83
2022-08-07T15:11:08.686Z,20.95
2022-08-07T15:13:47.035Z,21.53
2022-08-07T15:16:19.777Z,21.43
2022-08-07T15:25:16.169Z,20.91
2022-08-07T15:27:26.301Z,20.55
2022-08-07T15:33:01.465Z,20.70
2022-08-07T15:36:01.630Z,20.73
2022-08-07T15:38:30.738Z,20.64
2022-08-07T15:43:57.296Z,20.87
2022-08-07T15:46:32.110Z,21.05
2022-08-07T15:49:13.064Z,20.57
2022-08-07T15:54:26.403Z,20.67
2022-08-07T15:56:53.052Z,20.72
2022-08-07T15:59:20.398Z,20.73
2022-08-07T16:02:07.206Z,20.34
2022-08-07T16:04:36.112Z,19.94
2022-08-07T16:08:28.317Z,20.53
2022-08-07T16:09:54.586Z,20.40
2022-08-07T16:13:17.999Z,20.80
2022-08-07T16:16:42.954Z,20.29
2022-08-07T16:19:43.166Z,20.66
2022-08-07T16:22:54.998Z,20.63
2022-08-07T16:25:54.692Z,20.60
2022-08-07T16:30:05.842Z,20.33
2022-08-07T16:31:57.576Z,20.48
2022-08-07T16:34:32.166Z,20.41
2022-08-07T16:38:06.586Z,20.11
2022-08-07T16:40:23.316Z,20.30
2022-08-07T16:43:14.024Z,20.22
2022-08-07T16:46:47.583Z,20.18
2022-08-07T16:49:04.292Z,20.12
2022-08-07T16:51:57.594Z,20.05
2022-08-07T16:54:54.961Z,19.95
2022-08-07T16:58:02.185Z,19.88
2022-08-07T17:00:29.902Z,19.36
2022-08-07T17:03:17.464Z,19.77
2022-08-07T17:06:18.971Z,19.65
2022-08-07T17:09:10.807Z,18.96
2022-08-07T17:12:34.422Z,19.48
2022-08-07T17:15:00.740Z,18.70
2022-08-07T17:17:48.565Z,19.30
2022-08-07T17:20:41.729Z,19.36
2022-08-07T17:23:32.257Z,19.29
2022-08-07T17:26:22.839Z,19.23
2022-08-07T17:30:14.177Z,18.96
2022-08-07T17:32:30.114Z,18.68
2022-08-07T17:35:51.058Z,18.85
2022-08-07T17:38:32.220Z,18.96
2022-08-07T17:42:02.532Z,18.94
2022-08-07T17:44:33.803Z,18.52
2022-08-07T17:47:16.979Z,18.58
2022-08-07T17:50:00.735Z,18.63
2022-08-07T17:52:58.956Z,18.66
2022-08-07T17:56:00.504Z,17.93
2022-08-07T17:58:31.870Z,18.16
2022-08-07T18:00:59.722Z,18.27
2022-08-07T18:04:16.700Z,17.43
2022-08-07T18:07:20.966Z,18.08
2022-08-07T18:10:05.758Z,17.96
2022-08-07T18:12:33.761Z,18.12
2022-08-07T18:15:17.801Z,17.56
2022-08-07T18:18:44.806Z,17.44
2022-08-07T18:21:42.357Z,17.64
2022-08-07T18:24:07.736Z,17.77
2022-08-07T18:27:17.122Z,17.67
2022-08-07T18:30:05.703Z,17.59
2022-08-07T18:32:46.313Z,17.52
2022-08-07T18:35:55.842Z,17.47
2022-08-07T18:38:55.557Z,17.16
2022-08-07T18:41:54.361Z,17.38
2022-08-07T18:44:30.872Z,17.10
2022-08-07T18:47:22.785Z,15.82
2022-08-07T18:50:39.267Z,17.18
2022-08-07T18:53:13.914Z,17.12
2022-08-07T18:55:55.819Z,17.09
2022-08-07T18:58:38.365Z,17.05
2022-08-07T19:02:17.452Z,17.02
2022-08-07T19:04:57.627Z,16.69
2022-08-07T19:08:07.241Z,16.49
2022-08-07T19:10:51.294Z,16.33
2022-08-07T19:13:40.772Z,16.88
2022-08-07T19:17:01.527Z,16.89
2022-08-07T19:19:39.263Z,16.25
2022-08-07T19:22:34.171Z,16.77
2022-08-07T19:25:05.647Z,16.65
2022-08-07T19:28:57.031Z,16.69
2022-08-07T19:31:00.136Z,16.21
2022-08-07T19:33:10.283Z,16.74
2022-08-07T19:35:40.306Z,15.35
2022-08-07T19:38:17.250Z,15.52
2022-08-07T19:40:49.337Z,14.81
2022-08-07T19:43:45.541Z,16.00
2022-08-07T19:46:18.992Z,16.53
2022-08-07T19:48:57.398Z,16.44
2022-08-07T19:51:53.231Z,16.32
2022-08-07T19:54:35.000Z,16.11
2022-08-07T19:58:00.655Z,16.35
2022-08-07T19:59:57.966Z,15.90
2022-08-07T20:02:51.651Z,15.91
2022-08-07T20:05:28.157Z,15.91
2022-08-07T20:08:01.065Z,16.20
2022-08-07T20:10:55.283Z,16.04
2022-08-07T20:13:42.484Z,15.84
2022-08-07T20:16:15.802Z,15.87
2022-08-07T20:18:57.901Z,15.99
2022-08-07T20:21:25.169Z,16.34
2022-08-07T20:23:58.008Z,16.43
2022-08-07T20:26:32.748Z,15.95
2022-08-07T20:29:24.446Z,15.63
2022-08-07T20:32:02.380Z,15.60
2022-08-07T20:34:49.710Z,16.38
2022-08-07T20:37:16.535Z,15.33
2022-08-07T20:40:03.265Z,16.11
2022-08-07T20:42:30.296Z,16.00
2022-08-07T20:44:59.287Z,15.51
2022-08-07T20:47:26.029Z,16.15
2022-08-07T20:50:12.778Z,16.24
2022-08-07T20:52:51.896Z,16.50
2022-08-07T20:55:23.885Z,16.11
2022-08-07T20:58:03.393Z,16.23
2022-08-07T21:00:42.474Z,16.49
2022-08-07T21:03:09.862Z,15.63
2022-08-07T21:05:51.104Z,16.19
2022-08-07T21:08:37.876Z,16.12
2022-08-07T21:11:12.424Z,16.15
2022-08-07T21:14:16.194Z,16.02
2022-08-07T21:18:03.737Z,16.56
2022-08-07T21:20:04.834Z,15.72
2022-08-07T21:22:34.771Z,16.31
2022-08-07T21:25:19.683Z,16.55
2022-08-07T21:28:09.604Z,16.23
2022-08-07T21:30:48.973Z,16.58
2022-08-07T21:33:19.431Z,16.55
2022-08-07T21:36:05.087Z,16.53
2022-08-07T21:38:49.849Z,16.52
2022-08-07T21:41:24.820Z,16.30
2022-08-07T21:44:29.976Z,16.50
2022-08-07T21:47:19.680Z,14.71
2022-08-07T21:50:01.966Z,16.46
2022-08-07T21:52:48.244Z,16.47
2022-08-07T21:55:28.193Z,16.23
2022-08-07T21:58:32.237Z,15.63
2022-08-07T22:01:03.030Z,15.93
2022-08-07T22:03:46.627Z,15.73
2022-08-07T22:06:30.889Z,14.56
2022-08-07T22:09:07.231Z,15.99
2022-08-07T22:12:05.071Z,15.66
2022-08-07T22:14:34.864Z,15.59
2022-08-07T22:17:04.095Z,15.08
2022-08-07T22:20:06.994Z,15.97
2022-08-07T22:22:47.235Z,16.05
2022-08-07T22:25:19.638Z,16.20
2022-08-07T22:28:20.323Z,16.06
2022-08-07T22:30:54.658Z,16.15
2022-08-07T22:33:50.957Z,15.71
2022-08-07T22:36:33.256Z,15.97
2022-08-07T22:39:07.679Z,15.46
2022-08-07T22:42:03.772Z,15.73
2022-08-07T22:44:25.178Z,16.02
2022-08-07T22:47:08.639Z,16.00
2022-08-07T22:49:51.889Z,15.97
2022-08-07T22:53:15.208Z,15.20
2022-08-07T22:56:00.763Z,15.90
2022-08-07T22:59:02.863Z,15.85
2022-08-07T23:02:00.485Z,15.80
2022-08-07T23:04:33.346Z,15.76
2022-08-07T23:07:40.312Z,15.44
2022-08-07T23:10:42.606Z,15.77
2022-08-07T23:13:48.682Z,15.77
2022-08-07T23:16:48.485Z,15.77
2022-08-07T23:19:51.402Z,15.77
2022-08-07T23:22:56.711Z,15.79
2022-08-07T23:26:01.724Z,15.81
2022-08-07T23:28:54.579Z,15.84
2022-08-07T23:34:19.954Z,15.59
2022-08-07T23:34:42.691Z,15.86
2022-08-07T23:38:00.438Z,15.90
2022-08-07T23:40:39.614Z,15.91
2022-08-07T23:43:38.035Z,15.93
2022-08-07T23:46:37.574Z,15.95
2022-08-07T23:49:19.423Z,15.77
2022-08-07T23:53:01.231Z,15.66
2022-08-07T23:55:12.275Z,15.63
2022-08-07T23:58:04.326Z,15.49
